Climatologie pour Saint-Brevin les Pins
Jour • Résumé pour février 1, 2017 Système :  Métrique    Anglais   Mixte
« - 1 jour
+ 1 jour »
Jour Semaine Mois Année Personnalisé
  Maximum : Minimum : Moyenne :
Température sous abri : 12.3 °C 9.3 °C 10.7 °C
Point de rosée : 11.4 °C 9.0 °C 10.1 °C
Humidité : 99 % 89 % 96 %
Vitesse du vent : 24.1 km/h 0.0 km/h 9.3 km/h
Rafale : 29.0 km/h - -
Direction :- - South
Pression : 1012.1 hPa 1005.6 hPa -
Précipitations : 3.3 mm    
Historical Graphs
 
 
Tableau de données pour février 1, 2017
Heure Tempé Pt rosée Pression Vent Vitesse Rafale Humidité Taux pluie (/hr) Soleil
00:00 10.6 °C 10.2 °C 1012.1 hPa SSW 6.4 km/h 9.7 km/h 97 % 0.0 mm 0 W/m2
00:10 10.6 °C 10.1 °C 1012.1 hPa South 3.2 km/h 8.0 km/h 97 % 0.0 mm 0 W/m2
00:15 10.6 °C 10.1 °C 1012.1 hPa SSW 4.8 km/h 9.7 km/h 97 % 0.0 mm 0 W/m2
00:20 10.6 °C 10.1 °C 1012.1 hPa South 4.8 km/h 9.7 km/h 97 % 0.0 mm 0 W/m2
00:25 10.6 °C 10.1 °C 1012.1 hPa South 6.4 km/h 9.7 km/h 97 % 0.0 mm 0 W/m2
00:30 10.6 °C 10.1 °C 1012.1 hPa South 8.0 km/h 9.7 km/h 97 % 0.0 mm 0 W/m2
00:35 10.6 °C 10.1 °C 1012.1 hPa Calm   9.7 km/h 97 % 0.0 mm 0 W/m2
00:45 10.6 °C 10.3 °C 1012.1 hPa SSE 1.6 km/h 6.4 km/h 98 % 0.0 mm 0 W/m2
00:50 10.6 °C 10.3 °C 1011.7 hPa SSE 1.6 km/h 4.8 km/h 98 % 0.0 mm 0 W/m2
00:55 10.5 °C 10.2 °C 1012.1 hPa Calm   4.8 km/h 98 % 0.0 mm 0 W/m2
01:00 10.5 °C 10.0 °C 1011.7 hPa South 3.2 km/h 8.0 km/h 97 % 0.0 mm 0 W/m2
01:05 10.6 °C 10.3 °C 1011.7 hPa South 4.8 km/h 9.7 km/h 98 % 0.0 mm 0 W/m2
01:10 10.6 °C 10.3 °C 1011.7 hPa SE 4.8 km/h 9.7 km/h 98 % 0.0 mm 0 W/m2
01:15 10.4 °C 10.1 °C 1011.7 hPa SSE 4.8 km/h 8.0 km/h 98 % 0.0 mm 0 W/m2
01:20 10.4 °C 10.1 °C 1011.7 hPa South 4.8 km/h 6.4 km/h 98 % 0.0 mm 0 W/m2
01:30 10.5 °C 10.2 °C 1011.7 hPa SSW 1.6 km/h 8.0 km/h 98 % 0.0 mm 0 W/m2
01:35 10.5 °C 10.2 °C 1011.7 hPa SW 8.0 km/h 8.0 km/h 98 % 0.0 mm 0 W/m2
01:40 10.5 °C 10.2 °C 1011.7 hPa SSW 6.4 km/h 11.3 km/h 98 % 0.0 mm 0 W/m2
01:45 10.5 °C 10.2 °C 1011.7 hPa SSW 6.4 km/h 11.3 km/h 98 % 0.0 mm 0 W/m2
01:50 10.5 °C 10.2 °C 1011.7 hPa SSW 6.4 km/h 11.3 km/h 98 % 0.0 mm 0 W/m2
01:55 10.4 °C 10.1 °C 1011.7 hPa South 8.0 km/h 12.9 km/h 98 % 0.0 mm 0 W/m2
02:00 10.4 °C 10.1 °C 1011.4 hPa South 11.3 km/h 14.5 km/h 98 % 0.0 mm 0 W/m2
02:05 10.4 °C 10.1 °C 1011.4 hPa South 9.7 km/h 14.5 km/h 98 % 0.0 mm 0 W/m2
02:15 10.4 °C 10.1 °C 1011.4 hPa SSW 4.8 km/h 12.9 km/h 98 % 0.0 mm 0 W/m2
02:20 10.4 °C 10.1 °C 1011.4 hPa SSW 6.4 km/h 12.9 km/h 98 % 0.0 mm 0 W/m2
02:25 10.4 °C 10.1 °C 1011.1 hPa South 9.7 km/h 12.9 km/h 98 % 0.0 mm 0 W/m2
02:30 10.4 °C 10.1 °C 1011.1 hPa SSW 8.0 km/h 11.3 km/h 98 % 0.0 mm 0 W/m2
02:35 10.4 °C 10.1 °C 1011.4 hPa SSW 6.4 km/h 9.7 km/h 98 % 0.0 mm 0 W/m2
02:40 10.4 °C 10.1 °C 1011.4 hPa South 8.0 km/h 11.3 km/h 98 % 0.0 mm 0 W/m2
02:45 10.5 °C 10.2 °C 1011.4 hPa SSW 6.4 km/h 14.5 km/h 98 % 0.0 mm 0 W/m2
02:50 10.5 °C 10.2 °C 1011.4 hPa South 11.3 km/h 14.5 km/h 98 % 0.0 mm 0 W/m2
02:55 10.5 °C 10.2 °C 1011.4 hPa South 6.4 km/h 12.9 km/h 98 % 0.0 mm 0 W/m2
03:00 10.5 °C 10.2 °C 1011.4 hPa SSW 9.7 km/h 12.9 km/h 98 % 0.0 mm 0 W/m2
03:05 10.5 °C 10.2 °C 1011.1 hPa SSW 6.4 km/h 12.9 km/h 98 % 0.0 mm 0 W/m2
03:10 10.4 °C 10.1 °C 1011.4 hPa WSW 4.8 km/h 11.3 km/h 98 % 0.0 mm 0 W/m2
03:15 10.4 °C 10.1 °C 1011.4 hPa SSW 8.0 km/h 11.3 km/h 98 % 0.0 mm 0 W/m2
03:20 10.3 °C 10.0 °C 1011.4 hPa SSW 4.8 km/h 11.3 km/h 98 % 0.0 mm 0 W/m2
03:25 10.3 °C 10.0 °C 1011.1 hPa South 9.7 km/h 11.3 km/h 98 % 0.0 mm 0 W/m2
03:30 10.3 °C 10.0 °C 1011.1 hPa SSW 6.4 km/h 9.7 km/h 98 % 0.0 mm 0 W/m2
03:35 10.3 °C 10.0 °C 1011.1 hPa SSW 6.4 km/h 9.7 km/h 98 % 0.0 mm 0 W/m2
03:45 10.3 °C 10.0 °C 1011.1 hPa South 4.8 km/h 8.0 km/h 98 % 0.0 mm 0 W/m2
03:50 10.3 °C 10.0 °C 1011.1 hPa SSW 3.2 km/h 8.0 km/h 98 % 0.0 mm 0 W/m2
03:55 10.3 °C 10.0 °C 1011.1 hPa SSW 6.4 km/h 9.7 km/h 98 % 0.0 mm 0 W/m2
04:00 10.3 °C 10.0 °C 1011.1 hPa South 3.2 km/h 9.7 km/h 98 % 0.0 mm 0 W/m2
04:05 10.3 °C 10.0 °C 1011.1 hPa South 4.8 km/h 9.7 km/h 98 % 0.3 mm 0 W/m2
04:10 10.3 °C 10.0 °C 1011.1 hPa SSW 6.4 km/h 9.7 km/h 98 % 0.3 mm 0 W/m2
04:20 10.2 °C 9.9 °C 1011.1 hPa SW 4.8 km/h 9.7 km/h 98 % 0.3 mm 0 W/m2
04:30 10.2 °C 9.9 °C 1011.1 hPa South 4.8 km/h 9.7 km/h 98 % 0.3 mm 0 W/m2
04:35 10.2 °C 9.9 °C 1011.1 hPa SSW 4.8 km/h 9.7 km/h 98 % 0.3 mm 0 W/m2
04:40 10.1 °C 9.8 °C 1010.7 hPa South 4.8 km/h 11.3 km/h 98 % 0.5 mm 0 W/m2
04:45 10.1 °C 9.8 °C 1010.7 hPa SSW 9.7 km/h 11.3 km/h 98 % 0.5 mm 0 W/m2
04:50 10.1 °C 9.8 °C 1011.1 hPa South 4.8 km/h 9.7 km/h 98 % 0.5 mm 0 W/m2
04:55 10.1 °C 9.8 °C 1010.7 hPa South 6.4 km/h 9.7 km/h 98 % 0.5 mm 0 W/m2
05:00 10.1 °C 9.8 °C 1010.7 hPa South 4.8 km/h 8.0 km/h 98 % 0.5 mm 0 W/m2
05:05 10.1 °C 9.8 °C 1010.7 hPa South 3.2 km/h 8.0 km/h 98 % 0.5 mm 0 W/m2
05:15 10.1 °C 9.8 °C 1010.7 hPa South 4.8 km/h 9.7 km/h 98 % 0.5 mm 0 W/m2
05:20 10.2 °C 9.9 °C 1010.7 hPa South 4.8 km/h 9.7 km/h 98 % 0.5 mm 0 W/m2
05:25 10.2 °C 9.9 °C 1010.7 hPa South 3.2 km/h 8.0 km/h 98 % 0.5 mm 0 W/m2
05:30 10.2 °C 9.9 °C 1010.7 hPa South 1.6 km/h 8.0 km/h 98 % 0.5 mm 0 W/m2
05:35 10.1 °C 9.8 °C 1010.7 hPa South 1.6 km/h 6.4 km/h 98 % 0.5 mm 0 W/m2
05:40 10.1 °C 9.8 °C 1010.7 hPa South 3.2 km/h 4.8 km/h 98 % 0.5 mm 0 W/m2
05:45 10.1 °C 9.8 °C 1010.4 hPa South 3.2 km/h 4.8 km/h 98 % 0.5 mm 0 W/m2
05:50 10.1 °C 9.8 °C 1010.4 hPa South 4.8 km/h 6.4 km/h 98 % 0.3 mm 0 W/m2
06:00 10.1 °C 9.8 °C 1010.4 hPa SSE 6.4 km/h 8.0 km/h 98 % 0.3 mm 0 W/m2
06:05 10.1 °C 9.8 °C 1010.4 hPa SSE 3.2 km/h 8.0 km/h 98 % 0.3 mm 0 W/m2
06:10 10.1 °C 9.8 °C 1010.4 hPa SE 1.6 km/h 8.0 km/h 98 % 0.5 mm 0 W/m2
06:15 10.1 °C 9.8 °C 1010.4 hPa South 6.4 km/h 8.0 km/h 98 % 0.5 mm 0 W/m2
06:20 10.1 °C 9.8 °C 1010.4 hPa SSE 4.8 km/h 9.7 km/h 98 % 0.5 mm 0 W/m2
06:25 10.1 °C 9.8 °C 1010.4 hPa SSE 4.8 km/h 9.7 km/h 98 % 0.5 mm 0 W/m2
06:30 10.1 °C 9.8 °C 1010.4 hPa South 3.2 km/h 8.0 km/h 98 % 0.5 mm 0 W/m2
06:35 10.1 °C 9.8 °C 1010.4 hPa South 3.2 km/h 8.0 km/h 98 % 0.3 mm 0 W/m2
06:45 10.2 °C 9.9 °C 1010.4 hPa South 4.8 km/h 8.0 km/h 98 % 0.3 mm 0 W/m2
06:50 10.2 °C 9.9 °C 1010.4 hPa South 6.4 km/h 8.0 km/h 98 % 0.5 mm 0 W/m2
06:55 10.2 °C 9.9 °C 1010.4 hPa South 3.2 km/h 6.4 km/h 98 % 0.5 mm 0 W/m2
07:00 10.2 °C 9.9 °C 1010.4 hPa South 4.8 km/h 8.0 km/h 98 % 0.5 mm 0 W/m2
07:05 10.3 °C 10.0 °C 1010.0 hPa SSE 3.2 km/h 9.7 km/h 98 % 0.5 mm 0 W/m2
07:10 10.2 °C 9.9 °C 1010.0 hPa South 3.2 km/h 9.7 km/h 98 % 0.5 mm 0 W/m2
07:15 10.2 °C 9.9 °C 1010.0 hPa South 3.2 km/h 6.4 km/h 98 % 0.5 mm 0 W/m2
07:20 10.3 °C 10.0 °C 1010.4 hPa South 6.4 km/h 8.0 km/h 98 % 0.5 mm 0 W/m2
07:30 10.3 °C 10.0 °C 1010.4 hPa South 3.2 km/h 8.0 km/h 98 % 0.5 mm 0 W/m2
07:40 10.3 °C 10.0 °C 1010.0 hPa South 4.8 km/h 9.7 km/h 98 % 0.5 mm 0 W/m2
07:45 10.3 °C 10.0 °C 1010.0 hPa SSW 9.7 km/h 12.9 km/h 98 % 0.5 mm 0 W/m2
07:50 10.3 °C 10.0 °C 1010.0 hPa SSW 6.4 km/h 12.9 km/h 98 % 0.5 mm 0 W/m2
07:55 10.3 °C 10.0 °C 1010.0 hPa South 4.8 km/h 11.3 km/h 98 % 0.5 mm 0 W/m2
08:00 10.3 °C 10.0 °C 1010.0 hPa South 3.2 km/h 11.3 km/h 98 % 0.5 mm 0 W/m2
08:05 10.3 °C 10.0 °C 1010.0 hPa SSW 4.8 km/h 9.7 km/h 98 % 0.5 mm 0 W/m2
08:15 10.3 °C 10.0 °C 1010.0 hPa SSW 6.4 km/h 9.7 km/h 98 % 0.5 mm 0 W/m2
08:20 10.3 °C 10.0 °C 1010.0 hPa South 3.2 km/h 12.9 km/h 98 % 0.5 mm 0 W/m2
08:25 10.2 °C 9.9 °C 1010.0 hPa South 8.0 km/h 12.9 km/h 98 % 0.5 mm 0 W/m2
08:30 10.2 °C 10.0 °C 1010.0 hPa SSW 8.0 km/h 12.9 km/h 99 % 0.5 mm 0 W/m2
08:35 10.2 °C 10.0 °C 1010.0 hPa SSE 8.0 km/h 12.9 km/h 99 % 0.8 mm 0 W/m2
08:40 10.1 °C 9.9 °C 1010.0 hPa South 14.5 km/h 16.1 km/h 99 % 0.5 mm 0 W/m2
08:45 10.0 °C 9.7 °C 1010.0 hPa South 11.3 km/h 16.1 km/h 98 % 0.8 mm 0 W/m2
08:50 9.9 °C 9.6 °C 1010.0 hPa South 6.4 km/h 14.5 km/h 98 % 0.8 mm 0 W/m2
09:00 9.9 °C 9.6 °C 1010.0 hPa South 4.8 km/h 17.7 km/h 98 % 1.3 mm 0 W/m2
09:05 9.8 °C 9.7 °C 1010.0 hPa South 6.4 km/h 14.5 km/h 99 % 1.3 mm 5 W/m2
09:10 9.8 °C 9.6 °C 1010.4 hPa SSW 4.8 km/h 16.1 km/h 99 % 1.3 mm 0 W/m2
09:15 9.7 °C 9.6 °C 1010.4 hPa SSE 4.8 km/h 16.1 km/h 99 % 1.3 mm 0 W/m2
09:20 9.7 °C 9.4 °C 1010.4 hPa SSW 9.7 km/h 14.5 km/h 98 % 1.0 mm 0 W/m2
09:25 9.7 °C 9.4 °C 1010.4 hPa South 6.4 km/h 14.5 km/h 98 % 1.0 mm 0 W/m2
09:30 9.6 °C 9.3 °C 1010.4 hPa South 9.7 km/h 12.9 km/h 98 % 1.0 mm 5 W/m2
09:35 9.5 °C 9.2 °C 1010.4 hPa SSE 4.8 km/h 17.7 km/h 98 % 1.0 mm 0 W/m2
09:45 9.4 °C 9.3 °C 1010.0 hPa SSE 8.0 km/h 12.9 km/h 99 % 0.8 mm 0 W/m2
09:50 9.3 °C 9.0 °C 1010.4 hPa SSW 8.0 km/h 12.9 km/h 98 % 0.5 mm 5 W/m2
09:55 9.3 °C 9.0 °C 1010.4 hPa SSE 6.4 km/h 12.9 km/h 98 % 0.5 mm 16 W/m2
10:00 9.3 °C 9.0 °C 1010.0 hPa SSE 6.4 km/h 12.9 km/h 98 % 0.5 mm 30 W/m2
10:05 9.4 °C 9.1 °C 1010.4 hPa South 6.4 km/h 11.3 km/h 98 % 0.5 mm 32 W/m2
10:10 9.4 °C 9.3 °C 1010.4 hPa South 4.8 km/h 14.5 km/h 99 % 0.5 mm 44 W/m2
10:15 9.6 °C 9.4 °C 1010.0 hPa SE 8.0 km/h 14.5 km/h 99 % 0.5 mm 67 W/m2
10:20 9.6 °C 9.4 °C 1010.4 hPa South 6.4 km/h 16.1 km/h 99 % 0.5 mm 53 W/m2
10:30 9.6 °C 9.3 °C 1010.4 hPa South 8.0 km/h 14.5 km/h 98 % 0.5 mm 47 W/m2
10:35 9.6 °C 9.3 °C 1010.4 hPa SSW 9.7 km/h 12.9 km/h 98 % 0.3 mm 18 W/m2
10:40 9.6 °C 9.3 °C 1010.4 hPa SSW 6.4 km/h 14.5 km/h 98 % 0.3 mm 9 W/m2
10:45 9.6 °C 9.3 °C 1010.4 hPa SSW 8.0 km/h 17.7 km/h 98 % 0.3 mm 7 W/m2
10:50 9.5 °C 9.2 °C 1010.4 hPa SSW 12.9 km/h 17.7 km/h 98 % 0.3 mm 39 W/m2
10:55 9.5 °C 9.3 °C 1010.4 hPa South 11.3 km/h 12.9 km/h 99 % 0.3 mm 49 W/m2
11:05 9.8 °C 9.6 °C 1010.4 hPa South 8.0 km/h 12.9 km/h 99 % 0.0 mm 53 W/m2
11:10 9.9 °C 9.7 °C 1010.7 hPa South 3.2 km/h 12.9 km/h 99 % 0.0 mm 51 W/m2
11:15 9.9 °C 9.7 °C 1010.7 hPa SSW 11.3 km/h 14.5 km/h 99 % 0.0 mm 47 W/m2
11:20 9.9 °C 9.8 °C 1010.7 hPa South 11.3 km/h 14.5 km/h 99 % 0.0 mm 88 W/m2
11:25 9.9 °C 9.8 °C 1010.7 hPa South 12.9 km/h 14.5 km/h 99 % 0.0 mm 60 W/m2
11:30 10.0 °C 9.7 °C 1010.4 hPa South 6.4 km/h 16.1 km/h 98 % 0.0 mm 70 W/m2
11:35 10.1 °C 9.8 °C 1010.7 hPa South 14.5 km/h 16.1 km/h 98 % 0.0 mm 62 W/m2
11:40 10.1 °C 10.0 °C 1010.4 hPa South 9.7 km/h 17.7 km/h 99 % 0.0 mm 130 W/m2
11:45 10.3 °C 10.2 °C 1010.4 hPa SSE 11.3 km/h 17.7 km/h 99 % 0.0 mm 221 W/m2
11:50 10.5 °C 10.3 °C 1010.4 hPa South 9.7 km/h 16.1 km/h 99 % 0.0 mm 183 W/m2
11:55 10.8 °C 10.6 °C 1010.4 hPa South 12.9 km/h 20.9 km/h 99 % 0.0 mm 190 W/m2
12:00 10.9 °C 10.8 °C 1010.4 hPa SSE 11.3 km/h 20.9 km/h 99 % 0.0 mm 144 W/m2
12:05 10.9 °C 10.6 °C 1010.4 hPa South 6.4 km/h 22.5 km/h 98 % 0.0 mm 114 W/m2
12:10 10.9 °C 10.6 °C 1010.4 hPa SSW 11.3 km/h 22.5 km/h 98 % 0.0 mm 190 W/m2
12:15 10.9 °C 10.6 °C 1010.4 hPa South 22.5 km/h 29.0 km/h 98 % 0.0 mm 195 W/m2
12:20 11.1 °C 10.8 °C 1010.4 hPa South 20.9 km/h 29.0 km/h 98 % 0.0 mm 299 W/m2
12:25 11.2 °C 10.9 °C 1010.0 hPa SSW 8.0 km/h 22.5 km/h 98 % 0.0 mm 206 W/m2
12:30 11.2 °C 10.7 °C 1010.0 hPa SSW 9.7 km/h 22.5 km/h 97 % 0.0 mm 318 W/m2
12:35 11.2 °C 10.9 °C 1010.0 hPa South 17.7 km/h 22.5 km/h 98 % 0.0 mm 251 W/m2
12:40 11.4 °C 11.0 °C 1010.0 hPa SSW 6.4 km/h 22.5 km/h 97 % 0.0 mm 241 W/m2
12:45 11.5 °C 11.0 °C 1010.0 hPa South 11.3 km/h 19.3 km/h 97 % 0.0 mm 74 W/m2
12:50 11.3 °C 10.8 °C 1010.0 hPa SSW 16.1 km/h 19.3 km/h 97 % 0.0 mm 65 W/m2
12:55 11.3 °C 10.7 °C 1010.0 hPa South 6.4 km/h 17.7 km/h 96 % 0.0 mm 148 W/m2
13:00 11.2 °C 10.6 °C 1010.0 hPa South 6.4 km/h 24.1 km/h 96 % 0.0 mm 146 W/m2
13:05 11.3 °C 10.8 °C 1010.0 hPa SSW 11.3 km/h 24.1 km/h 97 % 0.0 mm 121 W/m2
13:10 11.2 °C 10.6 °C 1010.0 hPa SW 6.4 km/h 16.1 km/h 96 % 0.0 mm 123 W/m2
13:15 11.3 °C 10.7 °C 1009.7 hPa SSW 12.9 km/h 20.9 km/h 96 % 0.0 mm 149 W/m2
13:25 11.4 °C 10.8 °C 1009.7 hPa SW 9.7 km/h 17.7 km/h 96 % 0.0 mm 214 W/m2
13:30 11.5 °C 10.9 °C 1009.7 hPa WSW 4.8 km/h 17.7 km/h 96 % 0.0 mm 169 W/m2
13:35 11.6 °C 11.0 °C 1009.7 hPa SSW 9.7 km/h 19.3 km/h 96 % 0.0 mm 232 W/m2
13:40 11.9 °C 11.3 °C 1009.7 hPa SSW 4.8 km/h 19.3 km/h 96 % 0.0 mm 128 W/m2
13:50 11.8 °C 11.1 °C 1009.4 hPa SSW 9.7 km/h 20.9 km/h 95 % 0.0 mm 160 W/m2
14:00 12.1 °C 11.3 °C 1009.4 hPa South 11.3 km/h 20.9 km/h 95 % 0.0 mm 171 W/m2
14:05 12.2 °C 11.4 °C 1009.4 hPa SSW 12.9 km/h 20.9 km/h 95 % 0.0 mm 230 W/m2
14:10 12.2 °C 11.2 °C 1009.4 hPa SSW 8.0 km/h 19.3 km/h 94 % 0.0 mm 213 W/m2
14:15 12.1 °C 11.1 °C 1009.4 hPa SW 16.1 km/h 19.3 km/h 94 % 0.0 mm 229 W/m2
14:20 12.1 °C 11.3 °C 1009.4 hPa SSW 8.0 km/h 19.3 km/h 95 % 0.0 mm 264 W/m2
14:25 12.2 °C 11.2 °C 1009.4 hPa South 4.8 km/h 19.3 km/h 94 % 0.0 mm 237 W/m2
14:30 11.9 °C 11.0 °C 1009.4 hPa South 16.1 km/h 17.7 km/h 94 % 0.0 mm 204 W/m2
14:35 11.9 °C 11.0 °C 1009.4 hPa South 4.8 km/h 22.5 km/h 94 % 0.0 mm 236 W/m2
14:40 12.1 °C 11.1 °C 1009.4 hPa SSW 17.7 km/h 24.1 km/h 94 % 0.0 mm 330 W/m2
14:50 11.9 °C 11.0 °C 1009.4 hPa SW 9.7 km/h 24.1 km/h 94 % 0.0 mm 171 W/m2
14:55 11.8 °C 10.9 °C 1009.4 hPa South 8.0 km/h 20.9 km/h 94 % 0.0 mm 223 W/m2
15:00 12.0 °C 11.1 °C 1009.0 hPa SW 4.8 km/h 20.9 km/h 94 % 0.0 mm 267 W/m2
15:05 12.1 °C 11.1 °C 1009.0 hPa SW 14.5 km/h 24.1 km/h 94 % 0.0 mm 211 W/m2
15:10 12.1 °C 11.0 °C 1009.0 hPa SSW 9.7 km/h 25.7 km/h 93 % 0.0 mm 137 W/m2
15:15 11.9 °C 11.0 °C 1009.0 hPa South 9.7 km/h 25.7 km/h 94 % 0.0 mm 155 W/m2
15:20 11.9 °C 11.0 °C 1009.0 hPa SW 8.0 km/h 24.1 km/h 94 % 0.0 mm 163 W/m2
15:25 12.0 °C 11.1 °C 1009.0 hPa SW 24.1 km/h 27.4 km/h 94 % 0.0 mm 176 W/m2
15:30 12.1 °C 11.0 °C 1009.0 hPa SW 12.9 km/h 27.4 km/h 93 % 0.0 mm 155 W/m2
15:35 12.0 °C 10.9 °C 1009.0 hPa SSE 11.3 km/h 25.7 km/h 93 % 0.0 mm 134 W/m2
15:40 11.9 °C 11.0 °C 1009.0 hPa SSW 4.8 km/h 20.9 km/h 94 % 0.0 mm 144 W/m2
15:45 11.9 °C 10.8 °C 1009.0 hPa SSW 9.7 km/h 24.1 km/h 93 % 0.0 mm 120 W/m2
15:50 11.8 °C 10.9 °C 1009.0 hPa SSW 20.9 km/h 24.1 km/h 94 % 0.0 mm 114 W/m2
15:55 11.8 °C 10.7 °C 1009.0 hPa SSW 12.9 km/h 24.1 km/h 93 % 0.0 mm 107 W/m2
16:00 11.9 °C 11.0 °C 1009.0 hPa SSW 12.9 km/h 24.1 km/h 94 % 0.0 mm 144 W/m2
16:05 11.9 °C 11.0 °C 1009.0 hPa SSW 8.0 km/h 22.5 km/h 94 % 0.0 mm 171 W/m2
16:10 12.0 °C 10.9 °C 1009.0 hPa SW 9.7 km/h 22.5 km/h 93 % 0.0 mm 123 W/m2
16:15 12.1 °C 11.0 °C 1009.0 hPa SW 8.0 km/h 22.5 km/h 93 % 0.0 mm 253 W/m2
16:20 12.3 °C 11.2 °C 1009.0 hPa SW 19.3 km/h 22.5 km/h 93 % 0.0 mm 299 W/m2
16:25 12.3 °C 11.1 °C 1009.0 hPa South 4.8 km/h 22.5 km/h 92 % 0.0 mm 188 W/m2
16:30 12.3 °C 11.0 °C 1009.0 hPa SSW 11.3 km/h 19.3 km/h 92 % 0.0 mm 148 W/m2
16:35 12.2 °C 10.9 °C 1009.0 hPa WSW 8.0 km/h 22.5 km/h 92 % 0.0 mm 67 W/m2
16:40 12.0 °C 10.7 °C 1009.0 hPa South 9.7 km/h 22.5 km/h 92 % 0.0 mm 65 W/m2
16:45 11.9 °C 10.8 °C 1009.0 hPa South 9.7 km/h 20.9 km/h 93 % 0.0 mm 62 W/m2
16:50 11.9 °C 10.8 °C 1009.0 hPa South 9.7 km/h 20.9 km/h 93 % 0.0 mm 60 W/m2
16:55 11.8 °C 10.7 °C 1009.0 hPa South 8.0 km/h 20.9 km/h 93 % 0.0 mm 56 W/m2
17:00 11.7 °C 10.6 °C 1009.0 hPa SSW 8.0 km/h 19.3 km/h 93 % 0.0 mm 67 W/m2
17:05 11.7 °C 10.6 °C 1009.0 hPa South 9.7 km/h 24.1 km/h 93 % 0.0 mm 37 W/m2
17:10 11.6 °C 10.5 °C 1009.0 hPa SSW 8.0 km/h 24.1 km/h 93 % 0.0 mm 33 W/m2
17:15 11.5 °C 10.6 °C 1009.0 hPa South 12.9 km/h 22.5 km/h 94 % 0.0 mm 40 W/m2
17:20 11.5 °C 10.6 °C 1009.0 hPa SSW 8.0 km/h 19.3 km/h 94 % 0.0 mm 32 W/m2
17:25 11.4 °C 10.5 °C 1009.0 hPa SW 14.5 km/h 19.3 km/h 94 % 0.0 mm 19 W/m2
17:30 11.4 °C 10.5 °C 1009.0 hPa SW 3.2 km/h 19.3 km/h 94 % 0.0 mm 18 W/m2
17:40 11.2 °C 10.3 °C 1009.0 hPa SSW 11.3 km/h 20.9 km/h 94 % 0.0 mm 5 W/m2
17:45 11.2 °C 10.2 °C 1009.0 hPa SSE 8.0 km/h 19.3 km/h 94 % 0.0 mm 0 W/m2
17:50 11.1 °C 10.1 °C 1009.0 hPa South 11.3 km/h 20.9 km/h 94 % 0.0 mm 0 W/m2
17:55 11.0 °C 10.2 °C 1009.0 hPa South 20.9 km/h 20.9 km/h 95 % 0.0 mm 0 W/m2
18:00 11.0 °C 10.2 °C 1009.0 hPa SSW 14.5 km/h 25.7 km/h 95 % 0.0 mm 0 W/m2
18:05 10.9 °C 10.2 °C 1009.0 hPa South 19.3 km/h 25.7 km/h 95 % 0.0 mm 0 W/m2
18:10 10.9 °C 10.1 °C 1009.0 hPa SSW 14.5 km/h 22.5 km/h 95 % 0.0 mm 0 W/m2
18:15 10.8 °C 10.1 °C 1009.0 hPa South 8.0 km/h 22.5 km/h 95 % 0.0 mm 0 W/m2
18:20 10.8 °C 10.0 °C 1009.0 hPa SSW 9.7 km/h 20.9 km/h 95 % 0.0 mm 0 W/m2
18:25 10.7 °C 10.0 °C 1009.0 hPa South 17.7 km/h 20.9 km/h 95 % 0.0 mm 0 W/m2
18:30 10.7 °C 9.9 °C 1009.0 hPa SW 8.0 km/h 20.9 km/h 95 % 0.0 mm 0 W/m2
18:35 10.7 °C 10.0 °C 1009.0 hPa SSW 14.5 km/h 20.9 km/h 95 % 0.0 mm 0 W/m2
18:40 10.7 °C 10.0 °C 1009.0 hPa SSW 12.9 km/h 20.9 km/h 95 % 0.0 mm 0 W/m2
18:45 10.8 °C 10.0 °C 1009.0 hPa South 17.7 km/h 20.9 km/h 95 % 0.0 mm 0 W/m2
18:50 10.8 °C 10.2 °C 1009.0 hPa South 11.3 km/h 22.5 km/h 96 % 0.0 mm 0 W/m2
18:55 10.9 °C 10.1 °C 1009.0 hPa SSW 12.9 km/h 22.5 km/h 95 % 0.0 mm 0 W/m2
19:00 10.9 °C 10.1 °C 1009.0 hPa SSE 11.3 km/h 20.9 km/h 95 % 0.0 mm 0 W/m2
19:05 10.9 °C 10.1 °C 1009.0 hPa SSE 9.7 km/h 19.3 km/h 95 % 0.0 mm 0 W/m2
19:10 10.9 °C 10.1 °C 1009.0 hPa South 12.9 km/h 24.1 km/h 95 % 0.0 mm 0 W/m2
19:15 10.9 °C 10.1 °C 1009.0 hPa SW 9.7 km/h 24.1 km/h 95 % 0.0 mm 0 W/m2
19:20 10.9 °C 10.2 °C 1009.0 hPa South 11.3 km/h 20.9 km/h 95 % 0.0 mm 0 W/m2
19:25 10.9 °C 10.2 °C 1009.0 hPa SSW 11.3 km/h 22.5 km/h 95 % 0.0 mm 0 W/m2
19:30 10.9 °C 10.2 °C 1009.0 hPa South 11.3 km/h 22.5 km/h 95 % 0.0 mm 0 W/m2
19:35 10.9 °C 10.0 °C 1009.0 hPa South 9.7 km/h 22.5 km/h 94 % 0.0 mm 0 W/m2
19:40 10.9 °C 10.0 °C 1008.7 hPa SSW 9.7 km/h 24.1 km/h 94 % 0.0 mm 0 W/m2
19:45 10.9 °C 10.0 °C 1008.7 hPa SSW 6.4 km/h 24.1 km/h 94 % 0.0 mm 0 W/m2
19:50 10.9 °C 10.0 °C 1008.7 hPa South 8.0 km/h 20.9 km/h 94 % 0.0 mm 0 W/m2
20:00 10.9 °C 10.1 °C 1008.7 hPa SSW 16.1 km/h 20.9 km/h 95 % 0.0 mm 0 W/m2
20:05 10.8 °C 10.1 °C 1008.7 hPa South 8.0 km/h 20.9 km/h 95 % 0.0 mm 0 W/m2
20:10 10.8 °C 10.1 °C 1008.7 hPa SSW 14.5 km/h 20.9 km/h 95 % 0.0 mm 0 W/m2
20:15 10.9 °C 10.1 °C 1008.4 hPa SSE 11.3 km/h 27.4 km/h 95 % 0.0 mm 0 W/m2
20:20 10.9 °C 10.1 °C 1008.4 hPa South 17.7 km/h 27.4 km/h 95 % 0.0 mm 0 W/m2
20:25 10.9 °C 10.2 °C 1008.4 hPa South 16.1 km/h 27.4 km/h 95 % 0.0 mm 0 W/m2
20:30 10.9 °C 10.2 °C 1008.4 hPa South 22.5 km/h 27.4 km/h 95 % 0.0 mm 0 W/m2
20:35 10.9 °C 10.2 °C 1008.0 hPa South 9.7 km/h 29.0 km/h 95 % 0.0 mm 0 W/m2
20:40 10.9 °C 10.2 °C 1008.0 hPa SSW 8.0 km/h 29.0 km/h 95 % 0.0 mm 0 W/m2
20:45 10.9 °C 10.2 °C 1008.0 hPa SSW 17.7 km/h 25.7 km/h 95 % 0.0 mm 0 W/m2
20:50 10.9 °C 10.1 °C 1008.0 hPa South 9.7 km/h 22.5 km/h 95 % 0.0 mm 0 W/m2
20:55 10.8 °C 10.1 °C 1008.0 hPa South 16.1 km/h 25.7 km/h 95 % 0.0 mm 0 W/m2
21:00 10.8 °C 10.1 °C 1007.7 hPa South 16.1 km/h 25.7 km/h 95 % 0.0 mm 0 W/m2
21:05 10.8 °C 10.0 °C 1007.7 hPa South 12.9 km/h 24.1 km/h 95 % 0.0 mm 0 W/m2
21:10 10.8 °C 10.0 °C 1007.7 hPa SSW 14.5 km/h 25.7 km/h 95 % 0.0 mm 0 W/m2
21:15 10.8 °C 10.0 °C 1007.7 hPa South 19.3 km/h 25.7 km/h 95 % 0.0 mm 0 W/m2
21:20 10.8 °C 9.9 °C 1007.7 hPa SSW 11.3 km/h 25.7 km/h 94 % 0.0 mm 0 W/m2
21:25 10.8 °C 9.9 °C 1007.7 hPa SW 14.5 km/h 24.1 km/h 94 % 0.0 mm 0 W/m2
21:30 10.8 °C 9.9 °C 1007.7 hPa SSW 14.5 km/h 27.4 km/h 94 % 0.0 mm 0 W/m2
21:35 10.8 °C 9.9 °C 1007.7 hPa South 11.3 km/h 27.4 km/h 94 % 0.0 mm 0 W/m2
21:40 10.8 °C 9.9 °C 1007.3 hPa SSE 14.5 km/h 24.1 km/h 94 % 0.0 mm 0 W/m2
21:45 10.8 °C 9.9 °C 1007.3 hPa SSW 19.3 km/h 27.4 km/h 94 % 0.0 mm 0 W/m2
21:50 10.7 °C 9.8 °C 1007.3 hPa SSE 12.9 km/h 27.4 km/h 94 % 0.0 mm 0 W/m2
21:55 10.7 °C 9.7 °C 1007.3 hPa SE 17.7 km/h 25.7 km/h 94 % 0.0 mm 0 W/m2
22:00 10.7 °C 9.7 °C 1007.3 hPa SSE 14.5 km/h 24.1 km/h 94 % 0.0 mm 0 W/m2
22:05 10.7 °C 9.7 °C 1007.3 hPa South 19.3 km/h 22.5 km/h 94 % 0.0 mm 0 W/m2
22:10 10.7 °C 9.7 °C 1007.3 hPa South 14.5 km/h 19.3 km/h 94 % 0.0 mm 0 W/m2
22:15 10.7 °C 9.8 °C 1007.0 hPa SSE 11.3 km/h 24.1 km/h 94 % 0.0 mm 0 W/m2
22:20 10.7 °C 9.6 °C 1007.0 hPa SSE 14.5 km/h 25.7 km/h 93 % 0.0 mm 0 W/m2
22:25 10.7 °C 9.6 °C 1007.0 hPa SSW 16.1 km/h 25.7 km/h 93 % 0.0 mm 0 W/m2
22:30 10.8 °C 9.5 °C 1006.7 hPa South 11.3 km/h 24.1 km/h 92 % 0.0 mm 0 W/m2
22:35 10.8 °C 9.6 °C 1007.0 hPa South 14.5 km/h 27.4 km/h 92 % 0.0 mm 0 W/m2
22:40 10.9 °C 9.6 °C 1006.7 hPa SSW 17.7 km/h 27.4 km/h 92 % 0.0 mm 0 W/m2
22:45 10.9 °C 9.5 °C 1006.7 hPa SSW 12.9 km/h 27.4 km/h 91 % 0.0 mm 0 W/m2
22:50 11.0 °C 9.6 °C 1006.7 hPa South 14.5 km/h 27.4 km/h 91 % 0.0 mm 0 W/m2
22:55 10.9 °C 9.4 °C 1006.7 hPa SSE 14.5 km/h 29.0 km/h 90 % 0.0 mm 0 W/m2
23:00 10.9 °C 9.3 °C 1006.7 hPa SSW 9.7 km/h 29.0 km/h 90 % 0.0 mm 0 W/m2
23:05 10.8 °C 9.3 °C 1006.7 hPa South 14.5 km/h 24.1 km/h 90 % 0.0 mm 0 W/m2
23:10 10.8 °C 9.3 °C 1006.3 hPa South 14.5 km/h 24.1 km/h 90 % 0.0 mm 0 W/m2
23:15 10.8 °C 9.2 °C 1006.3 hPa South 14.5 km/h 22.5 km/h 90 % 0.0 mm 0 W/m2
23:20 10.7 °C 9.1 °C 1006.0 hPa SSE 16.1 km/h 19.3 km/h 90 % 0.0 mm 0 W/m2
23:25 10.6 °C 9.0 °C 1006.0 hPa South 20.9 km/h 20.9 km/h 90 % 0.0 mm 0 W/m2
23:30 10.6 °C 9.0 °C 1006.0 hPa South 17.7 km/h 20.9 km/h 90 % 0.0 mm 0 W/m2
23:35 10.6 °C 9.0 °C 1006.0 hPa SE 11.3 km/h 20.9 km/h 90 % 0.0 mm 0 W/m2
23:40 10.6 °C 9.0 °C 1006.0 hPa South 12.9 km/h 25.7 km/h 90 % 0.0 mm 0 W/m2
23:45 10.7 °C 9.1 °C 1006.0 hPa SSE 9.7 km/h 25.7 km/h 90 % 0.0 mm 0 W/m2
23:50 10.7 °C 9.1 °C 1006.0 hPa South 9.7 km/h 20.9 km/h 90 % 0.0 mm 0 W/m2
23:55 10.7 °C 9.0 °C 1005.6 hPa SSE 8.0 km/h 19.3 km/h 89 % 0.0 mm 0 W/m2
Avec l'autorisation de Weather Underground - 1.5 mb